sensor_id;sensor_type;location;lat;lon;timestamp;P1;durP1;ratioP1;P2;durP2;ratioP2
76856;SDS011;69705;44.686;37.628;2023-06-14T00:00:07;12.60;;;7.03;;
76856;SDS011;69705;44.686;37.628;2023-06-14T00:02:35;12.23;;;7.23;;
76856;SDS011;69705;44.686;37.628;2023-06-14T00:05:02;11.93;;;6.90;;
76856;SDS011;69705;44.686;37.628;2023-06-14T00:07:36;11.98;;;6.80;;
76856;SDS011;69705;44.686;37.628;2023-06-14T00:10:11;14.63;;;6.95;;
76856;SDS011;69705;44.686;37.628;2023-06-14T00:12:38;12.15;;;6.95;;
76856;SDS011;69705;44.686;37.628;2023-06-14T00:15:10;13.93;;;6.83;;
76856;SDS011;69705;44.686;37.628;2023-06-14T00:17:37;12.35;;;6.95;;
76856;SDS011;69705;44.686;37.628;2023-06-14T00:20:05;13.95;;;7.40;;
76856;SDS011;69705;44.686;37.628;2023-06-14T00:22:32;14.27;;;7.03;;
76856;SDS011;69705;44.686;37.628;2023-06-14T00:25:00;12.88;;;7.10;;
76856;SDS011;69705;44.686;37.628;2023-06-14T00:27:32;12.93;;;7.33;;
76856;SDS011;69705;44.686;37.628;2023-06-14T00:29:59;15.52;;;7.43;;
76856;SDS011;69705;44.686;37.628;2023-06-14T00:32:26;13.23;;;7.03;;
76856;SDS011;69705;44.686;37.628;2023-06-14T00:34:56;12.48;;;7.07;;
76856;SDS011;69705;44.686;37.628;2023-06-14T00:37:22;13.85;;;6.80;;
76856;SDS011;69705;44.686;37.628;2023-06-14T00:39:49;16.07;;;7.70;;
76856;SDS011;69705;44.686;37.628;2023-06-14T00:42:25;14.15;;;7.80;;
76856;SDS011;69705;44.686;37.628;2023-06-14T00:44:52;14.52;;;7.30;;
76856;SDS011;69705;44.686;37.628;2023-06-14T00:47:19;14.27;;;7.60;;
76856;SDS011;69705;44.686;37.628;2023-06-14T00:49:47;13.95;;;7.30;;
76856;SDS011;69705;44.686;37.628;2023-06-14T00:52:15;12.40;;;7.13;;
76856;SDS011;69705;44.686;37.628;2023-06-14T00:54:43;14.60;;;7.45;;
76856;SDS011;69705;44.686;37.628;2023-06-14T00:57:15;13.20;;;6.65;;
76856;SDS011;69705;44.686;37.628;2023-06-14T00:59:43;12.45;;;7.18;;
76856;SDS011;69705;44.686;37.628;2023-06-14T01:02:12;12.25;;;7.30;;
76856;SDS011;69705;44.686;37.628;2023-06-14T01:04:41;12.67;;;7.13;;
76856;SDS011;69705;44.686;37.628;2023-06-14T01:07:17;10.50;;;6.85;;
76856;SDS011;69705;44.686;37.628;2023-06-14T01:10:04;14.90;;;7.65;;
76856;SDS011;69705;44.686;37.628;2023-06-14T01:12:36;11.75;;;7.32;;
76856;SDS011;69705;44.686;37.628;2023-06-14T01:15:13;14.23;;;7.75;;
76856;SDS011;69705;44.686;37.628;2023-06-14T01:17:41;13.37;;;7.77;;
76856;SDS011;69705;44.686;37.628;2023-06-14T01:20:11;13.43;;;7.80;;
76856;SDS011;69705;44.686;37.628;2023-06-14T01:22:59;13.77;;;7.75;;
76856;SDS011;69705;44.686;37.628;2023-06-14T01:25:26;13.93;;;7.90;;
76856;SDS011;69705;44.686;37.628;2023-06-14T01:30:26;14.93;;;8.07;;
76856;SDS011;69705;44.686;37.628;2023-06-14T01:32:54;17.20;;;8.02;;
76856;SDS011;69705;44.686;37.628;2023-06-14T01:35:22;12.80;;;8.07;;
76856;SDS011;69705;44.686;37.628;2023-06-14T01:37:49;13.35;;;8.10;;
76856;SDS011;69705;44.686;37.628;2023-06-14T01:40:18;13.23;;;8.18;;
76856;SDS011;69705;44.686;37.628;2023-06-14T01:42:47;12.93;;;8.20;;
76856;SDS011;69705;44.686;37.628;2023-06-14T01:45:15;13.85;;;8.10;;
76856;SDS011;69705;44.686;37.628;2023-06-14T01:47:43;16.40;;;7.50;;
76856;SDS011;69705;44.686;37.628;2023-06-14T01:50:11;13.75;;;7.75;;
76856;SDS011;69705;44.686;37.628;2023-06-14T01:52:39;13.38;;;7.05;;
76856;SDS011;69705;44.686;37.628;2023-06-14T01:55:06;14.00;;;7.50;;
76856;SDS011;69705;44.686;37.628;2023-06-14T01:57:34;12.95;;;7.97;;
76856;SDS011;69705;44.686;37.628;2023-06-14T02:00:01;12.48;;;8.20;;
76856;SDS011;69705;44.686;37.628;2023-06-14T02:02:39;12.70;;;8.20;;
76856;SDS011;69705;44.686;37.628;2023-06-14T02:05:06;12.48;;;7.90;;
76856;SDS011;69705;44.686;37.628;2023-06-14T02:07:33;13.60;;;8.10;;
76856;SDS011;69705;44.686;37.628;2023-06-14T02:10:00;13.50;;;7.90;;
76856;SDS011;69705;44.686;37.628;2023-06-14T02:12:28;14.43;;;8.13;;
76856;SDS011;69705;44.686;37.628;2023-06-14T02:14:57;13.57;;;8.10;;
76856;SDS011;69705;44.686;37.628;2023-06-14T02:17:24;14.20;;;8.00;;
76856;SDS011;69705;44.686;37.628;2023-06-14T02:19:51;13.53;;;7.80;;
76856;SDS011;69705;44.686;37.628;2023-06-14T02:22:18;14.27;;;7.35;;
76856;SDS011;69705;44.686;37.628;2023-06-14T02:24:53;13.15;;;7.50;;
76856;SDS011;69705;44.686;37.628;2023-06-14T02:27:20;11.85;;;7.50;;
76856;SDS011;69705;44.686;37.628;2023-06-14T02:29:46;12.63;;;7.75;;
76856;SDS011;69705;44.686;37.628;2023-06-14T02:32:13;11.67;;;7.83;;
76856;SDS011;69705;44.686;37.628;2023-06-14T02:34:40;15.35;;;7.80;;
76856;SDS011;69705;44.686;37.628;2023-06-14T02:37:12;14.00;;;7.70;;
76856;SDS011;69705;44.686;37.628;2023-06-14T02:39:39;16.90;;;7.97;;
76856;SDS011;69705;44.686;37.628;2023-06-14T02:42:06;15.43;;;8.38;;
76856;SDS011;69705;44.686;37.628;2023-06-14T02:44:33;15.00;;;8.07;;
76856;SDS011;69705;44.686;37.628;2023-06-14T02:47:01;14.27;;;8.25;;
76856;SDS011;69705;44.686;37.628;2023-06-14T02:49:28;12.82;;;7.55;;
76856;SDS011;69705;44.686;37.628;2023-06-14T02:51:55;16.17;;;8.68;;
76856;SDS011;69705;44.686;37.628;2023-06-14T02:54:27;16.23;;;7.88;;
76856;SDS011;69705;44.686;37.628;2023-06-14T02:56:54;15.47;;;8.30;;
76856;SDS011;69705;44.686;37.628;2023-06-14T02:59:22;12.13;;;7.68;;
76856;SDS011;69705;44.686;37.628;2023-06-14T03:01:54;13.70;;;8.00;;
76856;SDS011;69705;44.686;37.628;2023-06-14T03:04:21;14.60;;;8.25;;
76856;SDS011;69705;44.686;37.628;2023-06-14T03:06:48;14.10;;;8.07;;
76856;SDS011;69705;44.686;37.628;2023-06-14T03:09:19;12.13;;;7.43;;
76856;SDS011;69705;44.686;37.628;2023-06-14T03:11:47;14.95;;;7.95;;
76856;SDS011;69705;44.686;37.628;2023-06-14T03:14:14;14.65;;;8.05;;
76856;SDS011;69705;44.686;37.628;2023-06-14T03:16:42;17.15;;;8.23;;
76856;SDS011;69705;44.686;37.628;2023-06-14T03:19:12;14.80;;;7.88;;
76856;SDS011;69705;44.686;37.628;2023-06-14T03:21:39;15.63;;;7.60;;
76856;SDS011;69705;44.686;37.628;2023-06-14T03:24:11;17.73;;;8.05;;
76856;SDS011;69705;44.686;37.628;2023-06-14T03:26:37;12.32;;;7.60;;
76856;SDS011;69705;44.686;37.628;2023-06-14T03:29:05;15.05;;;7.78;;
76856;SDS011;69705;44.686;37.628;2023-06-14T03:31:33;16.15;;;8.10;;
76856;SDS011;69705;44.686;37.628;2023-06-14T03:34:03;17.73;;;7.83;;
76856;SDS011;69705;44.686;37.628;2023-06-14T03:36:30;15.75;;;8.15;;
76856;SDS011;69705;44.686;37.628;2023-06-14T03:38:59;16.42;;;7.55;;
76856;SDS011;69705;44.686;37.628;2023-06-14T03:41:26;13.75;;;8.45;;
76856;SDS011;69705;44.686;37.628;2023-06-14T03:43:54;15.25;;;8.85;;
76856;SDS011;69705;44.686;37.628;2023-06-14T03:46:21;15.67;;;8.30;;
76856;SDS011;69705;44.686;37.628;2023-06-14T03:48:48;16.27;;;9.27;;
76856;SDS011;69705;44.686;37.628;2023-06-14T03:51:14;21.25;;;10.82;;
76856;SDS011;69705;44.686;37.628;2023-06-14T03:53:41;21.00;;;12.63;;
76856;SDS011;69705;44.686;37.628;2023-06-14T03:56:08;26.67;;;14.35;;
76856;SDS011;69705;44.686;37.628;2023-06-14T03:58:40;24.83;;;13.23;;
76856;SDS011;69705;44.686;37.628;2023-06-14T04:01:07;28.13;;;14.32;;
76856;SDS011;69705;44.686;37.628;2023-06-14T04:03:34;24.42;;;12.73;;
76856;SDS011;69705;44.686;37.628;2023-06-14T04:06:02;24.67;;;12.60;;
76856;SDS011;69705;44.686;37.628;2023-06-14T04:08:31;24.05;;;11.35;;
76856;SDS011;69705;44.686;37.628;2023-06-14T04:10:58;24.63;;;10.80;;
76856;SDS011;69705;44.686;37.628;2023-06-14T04:13:25;20.85;;;11.27;;
76856;SDS011;69705;44.686;37.628;2023-06-14T04:15:52;26.02;;;11.27;;
76856;SDS011;69705;44.686;37.628;2023-06-14T04:18:24;20.58;;;10.45;;
76856;SDS011;69705;44.686;37.628;2023-06-14T04:20:51;18.42;;;9.90;;
76856;SDS011;69705;44.686;37.628;2023-06-14T04:23:19;18.17;;;9.40;;
76856;SDS011;69705;44.686;37.628;2023-06-14T04:25:54;16.42;;;8.07;;
76856;SDS011;69705;44.686;37.628;2023-06-14T04:28:22;15.23;;;8.23;;
76856;SDS011;69705;44.686;37.628;2023-06-14T04:30:52;13.68;;;8.40;;
76856;SDS011;69705;44.686;37.628;2023-06-14T04:33:19;16.00;;;8.40;;
76856;SDS011;69705;44.686;37.628;2023-06-14T04:35:46;13.03;;;7.87;;
76856;SDS011;69705;44.686;37.628;2023-06-14T04:38:15;19.58;;;9.18;;
76856;SDS011;69705;44.686;37.628;2023-06-14T04:40:42;17.45;;;8.80;;
76856;SDS011;69705;44.686;37.628;2023-06-14T04:43:11;19.60;;;10.02;;
76856;SDS011;69705;44.686;37.628;2023-06-14T04:45:39;21.33;;;10.20;;
76856;SDS011;69705;44.686;37.628;2023-06-14T04:48:08;18.30;;;8.63;;
76856;SDS011;69705;44.686;37.628;2023-06-14T04:50:34;19.45;;;10.00;;
76856;SDS011;69705;44.686;37.628;2023-06-14T04:53:02;22.95;;;11.40;;
76856;SDS011;69705;44.686;37.628;2023-06-14T04:55:29;15.40;;;8.15;;
76856;SDS011;69705;44.686;37.628;2023-06-14T04:57:57;17.15;;;9.52;;
76856;SDS011;69705;44.686;37.628;2023-06-14T05:00:24;15.73;;;7.80;;
76856;SDS011;69705;44.686;37.628;2023-06-14T05:02:51;12.02;;;6.70;;
76856;SDS011;69705;44.686;37.628;2023-06-14T05:05:19;13.43;;;6.55;;
76856;SDS011;69705;44.686;37.628;2023-06-14T05:07:46;15.65;;;6.82;;
76856;SDS011;69705;44.686;37.628;2023-06-14T05:10:13;13.55;;;6.85;;
76856;SDS011;69705;44.686;37.628;2023-06-14T05:12:41;15.43;;;6.73;;
76856;SDS011;69705;44.686;37.628;2023-06-14T05:15:10;12.43;;;6.07;;
76856;SDS011;69705;44.686;37.628;2023-06-14T05:17:38;14.90;;;7.03;;
76856;SDS011;69705;44.686;37.628;2023-06-14T05:20:06;14.13;;;7.07;;
76856;SDS011;69705;44.686;37.628;2023-06-14T05:22:36;13.25;;;6.88;;
76856;SDS011;69705;44.686;37.628;2023-06-14T05:25:03;14.07;;;6.50;;
76856;SDS011;69705;44.686;37.628;2023-06-14T05:27:30;11.77;;;6.25;;
76856;SDS011;69705;44.686;37.628;2023-06-14T05:29:57;16.10;;;6.80;;
76856;SDS011;69705;44.686;37.628;2023-06-14T05:32:25;15.02;;;6.45;;
76856;SDS011;69705;44.686;37.628;2023-06-14T05:34:51;14.38;;;6.40;;
76856;SDS011;69705;44.686;37.628;2023-06-14T05:37:18;12.73;;;6.03;;
76856;SDS011;69705;44.686;37.628;2023-06-14T05:39:45;11.55;;;6.10;;
76856;SDS011;69705;44.686;37.628;2023-06-14T05:42:12;16.40;;;6.40;;
76856;SDS011;69705;44.686;37.628;2023-06-14T05:44:39;11.05;;;6.47;;
76856;SDS011;69705;44.686;37.628;2023-06-14T05:47:05;18.83;;;6.15;;
76856;SDS011;69705;44.686;37.628;2023-06-14T05:49:32;10.77;;;5.50;;
76856;SDS011;69705;44.686;37.628;2023-06-14T05:51:59;11.63;;;5.78;;
76856;SDS011;69705;44.686;37.628;2023-06-14T05:54:26;12.95;;;5.78;;
76856;SDS011;69705;44.686;37.628;2023-06-14T05:56:53;15.32;;;5.70;;
76856;SDS011;69705;44.686;37.628;2023-06-14T05:59:20;12.90;;;5.57;;
76856;SDS011;69705;44.686;37.628;2023-06-14T06:01:47;14.43;;;5.70;;
76856;SDS011;69705;44.686;37.628;2023-06-14T06:04:14;11.00;;;5.28;;
76856;SDS011;69705;44.686;37.628;2023-06-14T06:06:41;12.27;;;5.55;;
76856;SDS011;69705;44.686;37.628;2023-06-14T06:09:08;14.75;;;5.63;;
76856;SDS011;69705;44.686;37.628;2023-06-14T06:11:35;12.68;;;5.97;;
76856;SDS011;69705;44.686;37.628;2023-06-14T06:14:02;11.77;;;5.37;;
76856;SDS011;69705;44.686;37.628;2023-06-14T06:16:29;10.80;;;5.45;;
76856;SDS011;69705;44.686;37.628;2023-06-14T06:18:56;11.98;;;5.32;;
76856;SDS011;69705;44.686;37.628;2023-06-14T06:21:23;14.00;;;5.60;;
76856;SDS011;69705;44.686;37.628;2023-06-14T06:23:49;13.50;;;5.22;;
76856;SDS011;69705;44.686;37.628;2023-06-14T06:26:16;12.13;;;5.33;;
76856;SDS011;69705;44.686;37.628;2023-06-14T06:28:43;9.88;;;5.13;;
76856;SDS011;69705;44.686;37.628;2023-06-14T06:31:10;10.80;;;5.00;;
76856;SDS011;69705;44.686;37.628;2023-06-14T06:33:37;10.43;;;4.80;;
76856;SDS011;69705;44.686;37.628;2023-06-14T06:36:05;10.82;;;4.80;;
76856;SDS011;69705;44.686;37.628;2023-06-14T06:38:32;13.70;;;4.93;;
76856;SDS011;69705;44.686;37.628;2023-06-14T06:40:59;10.10;;;4.70;;
76856;SDS011;69705;44.686;37.628;2023-06-14T06:43:26;12.57;;;4.65;;
76856;SDS011;69705;44.686;37.628;2023-06-14T06:45:56;9.80;;;4.30;;
76856;SDS011;69705;44.686;37.628;2023-06-14T06:48:23;11.15;;;4.70;;
76856;SDS011;69705;44.686;37.628;2023-06-14T06:50:50;9.20;;;4.70;;
76856;SDS011;69705;44.686;37.628;2023-06-14T06:53:18;9.73;;;4.60;;
76856;SDS011;69705;44.686;37.628;2023-06-14T06:55:45;9.63;;;4.43;;
76856;SDS011;69705;44.686;37.628;2023-06-14T06:58:12;8.00;;;4.00;;
76856;SDS011;69705;44.686;37.628;2023-06-14T07:00:39;11.30;;;4.00;;
76856;SDS011;69705;44.686;37.628;2023-06-14T07:03:07;9.60;;;4.17;;
76856;SDS011;69705;44.686;37.628;2023-06-14T07:05:34;8.60;;;3.80;;
76856;SDS011;69705;44.686;37.628;2023-06-14T07:08:01;11.90;;;3.97;;
76856;SDS011;69705;44.686;37.628;2023-06-14T07:10:27;9.60;;;4.18;;
76856;SDS011;69705;44.686;37.628;2023-06-14T07:12:54;9.98;;;4.25;;
76856;SDS011;69705;44.686;37.628;2023-06-14T07:15:21;10.10;;;3.77;;
76856;SDS011;69705;44.686;37.628;2023-06-14T07:17:48;10.27;;;3.67;;
76856;SDS011;69705;44.686;37.628;2023-06-14T07:20:16;9.18;;;3.80;;
76856;SDS011;69705;44.686;37.628;2023-06-14T07:22:43;9.73;;;3.95;;
76856;SDS011;69705;44.686;37.628;2023-06-14T07:25:11;10.20;;;4.03;;
76856;SDS011;69705;44.686;37.628;2023-06-14T07:27:42;7.70;;;3.50;;
76856;SDS011;69705;44.686;37.628;2023-06-14T07:30:09;11.05;;;3.60;;
76856;SDS011;69705;44.686;37.628;2023-06-14T07:32:36;9.82;;;3.58;;
76856;SDS011;69705;44.686;37.628;2023-06-14T07:35:04;8.15;;;3.58;;
76856;SDS011;69705;44.686;37.628;2023-06-14T07:37:31;13.35;;;3.65;;
76856;SDS011;69705;44.686;37.628;2023-06-14T07:39:58;10.07;;;3.80;;
76856;SDS011;69705;44.686;37.628;2023-06-14T07:42:25;7.45;;;3.25;;
76856;SDS011;69705;44.686;37.628;2023-06-14T07:44:52;8.88;;;3.33;;
76856;SDS011;69705;44.686;37.628;2023-06-14T07:47:19;10.52;;;3.80;;
76856;SDS011;69705;44.686;37.628;2023-06-14T07:49:46;7.40;;;3.50;;
76856;SDS011;69705;44.686;37.628;2023-06-14T07:52:14;9.50;;;3.40;;
76856;SDS011;69705;44.686;37.628;2023-06-14T07:54:41;9.20;;;3.50;;
76856;SDS011;69705;44.686;37.628;2023-06-14T07:57:08;9.70;;;3.60;;
76856;SDS011;69705;44.686;37.628;2023-06-14T07:59:35;9.98;;;3.70;;
76856;SDS011;69705;44.686;37.628;2023-06-14T08:02:02;10.02;;;3.80;;
76856;SDS011;69705;44.686;37.628;2023-06-14T08:04:29;9.17;;;3.47;;
76856;SDS011;69705;44.686;37.628;2023-06-14T08:06:56;9.23;;;3.50;;
76856;SDS011;69705;44.686;37.628;2023-06-14T08:09:22;7.55;;;3.42;;
76856;SDS011;69705;44.686;37.628;2023-06-14T08:11:51;8.88;;;3.40;;
76856;SDS011;69705;44.686;37.628;2023-06-14T08:14:17;8.10;;;3.42;;
76856;SDS011;69705;44.686;37.628;2023-06-14T08:16:44;8.37;;;3.27;;
76856;SDS011;69705;44.686;37.628;2023-06-14T08:19:11;9.57;;;3.40;;
76856;SDS011;69705;44.686;37.628;2023-06-14T08:21:38;9.48;;;3.60;;
76856;SDS011;69705;44.686;37.628;2023-06-14T08:24:06;8.10;;;3.60;;
76856;SDS011;69705;44.686;37.628;2023-06-14T08:26:38;9.48;;;3.45;;
76856;SDS011;69705;44.686;37.628;2023-06-14T08:29:05;9.93;;;3.83;;
76856;SDS011;69705;44.686;37.628;2023-06-14T08:31:35;8.75;;;3.53;;
76856;SDS011;69705;44.686;37.628;2023-06-14T08:34:02;8.50;;;3.22;;
76856;SDS011;69705;44.686;37.628;2023-06-14T08:36:29;9.65;;;3.58;;
76856;SDS011;69705;44.686;37.628;2023-06-14T08:38:55;9.75;;;3.72;;
76856;SDS011;69705;44.686;37.628;2023-06-14T08:41:23;11.77;;;3.60;;
76856;SDS011;69705;44.686;37.628;2023-06-14T08:43:51;8.23;;;3.63;;
76856;SDS011;69705;44.686;37.628;2023-06-14T08:46:18;8.13;;;3.28;;
76856;SDS011;69705;44.686;37.628;2023-06-14T08:48:46;11.65;;;3.72;;
76856;SDS011;69705;44.686;37.628;2023-06-14T08:51:18;7.15;;;3.30;;
76856;SDS011;69705;44.686;37.628;2023-06-14T08:53:58;11.23;;;3.40;;
76856;SDS011;69705;44.686;37.628;2023-06-14T08:56:25;11.85;;;3.60;;
76856;SDS011;69705;44.686;37.628;2023-06-14T08:58:54;7.65;;;3.13;;
76856;SDS011;69705;44.686;37.628;2023-06-14T09:01:22;10.18;;;3.30;;
76856;SDS011;69705;44.686;37.628;2023-06-14T09:03:50;10.27;;;3.00;;
76856;SDS011;69705;44.686;37.628;2023-06-14T09:09:03;8.20;;;3.00;;
76856;SDS011;69705;44.686;37.628;2023-06-14T09:11:30;7.43;;;3.10;;
76856;SDS011;69705;44.686;37.628;2023-06-14T09:13:57;11.65;;;3.47;;
76856;SDS011;69705;44.686;37.628;2023-06-14T09:16:25;9.07;;;3.30;;
76856;SDS011;69705;44.686;37.628;2023-06-14T09:18:52;8.07;;;2.93;;
76856;SDS011;69705;44.686;37.628;2023-06-14T09:21:20;7.68;;;3.05;;
76856;SDS011;69705;44.686;37.628;2023-06-14T09:23:47;8.35;;;3.38;;
76856;SDS011;69705;44.686;37.628;2023-06-14T09:26:15;10.23;;;3.00;;
76856;SDS011;69705;44.686;37.628;2023-06-14T09:28:46;10.10;;;3.33;;
76856;SDS011;69705;44.686;37.628;2023-06-14T09:31:15;9.00;;;3.33;;
76856;SDS011;69705;44.686;37.628;2023-06-14T09:33:46;8.75;;;3.13;;
76856;SDS011;69705;44.686;37.628;2023-06-14T09:36:18;9.05;;;3.10;;
76856;SDS011;69705;44.686;37.628;2023-06-14T09:38:52;7.43;;;2.88;;
76856;SDS011;69705;44.686;37.628;2023-06-14T09:41:32;8.63;;;3.08;;
76856;SDS011;69705;44.686;37.628;2023-06-14T09:44:01;12.60;;;2.97;;
76856;SDS011;69705;44.686;37.628;2023-06-14T09:46:29;8.13;;;2.97;;
76856;SDS011;69705;44.686;37.628;2023-06-14T09:54:50;9.30;;;3.05;;
76856;SDS011;69705;44.686;37.628;2023-06-14T09:57:20;9.77;;;3.20;;
76856;SDS011;69705;44.686;37.628;2023-06-14T09:59:49;10.13;;;3.10;;
76856;SDS011;69705;44.686;37.628;2023-06-14T10:04:56;11.88;;;3.45;;
76856;SDS011;69705;44.686;37.628;2023-06-14T10:07:35;8.52;;;2.80;;
76856;SDS011;69705;44.686;37.628;2023-06-14T10:10:06;8.37;;;2.70;;
76856;SDS011;69705;44.686;37.628;2023-06-14T10:12:34;7.82;;;2.97;;
76856;SDS011;69705;44.686;37.628;2023-06-14T10:15:01;7.15;;;2.50;;
76856;SDS011;69705;44.686;37.628;2023-06-14T10:17:40;7.63;;;2.50;;
76856;SDS011;69705;44.686;37.628;2023-06-14T10:22:51;10.73;;;2.60;;
76856;SDS011;69705;44.686;37.628;2023-06-14T10:25:31;7.32;;;2.88;;
76856;SDS011;69705;44.686;37.628;2023-06-14T10:28:19;9.27;;;3.10;;
76856;SDS011;69705;44.686;37.628;2023-06-14T10:33:33;7.47;;;2.70;;
76856;SDS011;69705;44.686;37.628;2023-06-14T10:39:04;7.95;;;3.10;;
76856;SDS011;69705;44.686;37.628;2023-06-14T10:41:41;12.35;;;2.97;;
76856;SDS011;69705;44.686;37.628;2023-06-14T10:46:47;8.50;;;2.78;;
76856;SDS011;69705;44.686;37.628;2023-06-14T10:52:10;7.07;;;2.70;;
76856;SDS011;69705;44.686;37.628;2023-06-14T10:57:46;10.32;;;3.08;;
76856;SDS011;69705;44.686;37.628;2023-06-14T11:00:23;7.88;;;2.80;;
76856;SDS011;69705;44.686;37.628;2023-06-14T11:06:09;8.10;;;2.70;;
76856;SDS011;69705;44.686;37.628;2023-06-14T11:11:31;7.25;;;2.63;;
76856;SDS011;69705;44.686;37.628;2023-06-14T11:14:02;8.27;;;2.53;;
76856;SDS011;69705;44.686;37.628;2023-06-14T11:16:29;10.85;;;2.83;;
76856;SDS011;69705;44.686;37.628;2023-06-14T11:19:14;7.40;;;2.40;;
76856;SDS011;69705;44.686;37.628;2023-06-14T11:21:46;11.38;;;2.70;;
76856;SDS011;69705;44.686;37.628;2023-06-14T11:24:14;8.80;;;2.30;;
76856;SDS011;69705;44.686;37.628;2023-06-14T11:26:41;8.43;;;2.55;;
76856;SDS011;69705;44.686;37.628;2023-06-14T11:29:07;6.15;;;2.25;;
76856;SDS011;69705;44.686;37.628;2023-06-14T11:31:35;22.30;;;4.80;;
76856;SDS011;69705;44.686;37.628;2023-06-14T11:34:02;7.90;;;3.03;;
76856;SDS011;69705;44.686;37.628;2023-06-14T11:36:33;10.43;;;2.80;;
76856;SDS011;69705;44.686;37.628;2023-06-14T11:39:01;8.98;;;2.60;;
76856;SDS011;69705;44.686;37.628;2023-06-14T11:41:36;7.15;;;2.30;;
76856;SDS011;69705;44.686;37.628;2023-06-14T11:44:05;6.97;;;2.30;;
76856;SDS011;69705;44.686;37.628;2023-06-14T11:46:32;6.72;;;2.10;;
76856;SDS011;69705;44.686;37.628;2023-06-14T11:49:00;6.80;;;2.75;;
76856;SDS011;69705;44.686;37.628;2023-06-14T11:51:33;7.90;;;2.40;;
76856;SDS011;69705;44.686;37.628;2023-06-14T11:54:01;9.55;;;2.30;;
76856;SDS011;69705;44.686;37.628;2023-06-14T11:56:29;7.87;;;2.30;;
76856;SDS011;69705;44.686;37.628;2023-06-14T11:58:58;5.70;;;2.20;;
76856;SDS011;69705;44.686;37.628;2023-06-14T12:01:25;6.57;;;2.53;;
76856;SDS011;69705;44.686;37.628;2023-06-14T12:03:53;8.77;;;2.60;;
76856;SDS011;69705;44.686;37.628;2023-06-14T12:06:27;6.38;;;2.42;;
76856;SDS011;69705;44.686;37.628;2023-06-14T12:08:58;7.10;;;2.50;;
76856;SDS011;69705;44.686;37.628;2023-06-14T12:11:32;7.53;;;2.30;;
76856;SDS011;69705;44.686;37.628;2023-06-14T12:14:00;6.03;;;2.20;;
76856;SDS011;69705;44.686;37.628;2023-06-14T12:16:30;7.90;;;2.30;;
76856;SDS011;69705;44.686;37.628;2023-06-14T12:19:15;6.13;;;2.15;;
76856;SDS011;69705;44.686;37.628;2023-06-14T12:21:45;6.63;;;2.30;;
76856;SDS011;69705;44.686;37.628;2023-06-14T12:24:17;5.95;;;2.33;;
76856;SDS011;69705;44.686;37.628;2023-06-14T12:26:43;6.72;;;2.45;;
76856;SDS011;69705;44.686;37.628;2023-06-14T12:29:11;6.45;;;2.40;;
76856;SDS011;69705;44.686;37.628;2023-06-14T12:31:39;6.35;;;2.30;;
76856;SDS011;69705;44.686;37.628;2023-06-14T12:34:06;6.40;;;2.40;;
76856;SDS011;69705;44.686;37.628;2023-06-14T12:36:33;6.00;;;2.33;;
76856;SDS011;69705;44.686;37.628;2023-06-14T12:39:01;13.25;;;3.90;;
76856;SDS011;69705;44.686;37.628;2023-06-14T12:41:28;8.10;;;2.10;;
76856;SDS011;69705;44.686;37.628;2023-06-14T12:43:55;6.72;;;2.40;;
76856;SDS011;69705;44.686;37.628;2023-06-14T12:46:24;5.80;;;2.40;;
76856;SDS011;69705;44.686;37.628;2023-06-14T12:49:12;5.47;;;2.17;;
76856;SDS011;69705;44.686;37.628;2023-06-14T12:51:39;6.30;;;2.50;;
76856;SDS011;69705;44.686;37.628;2023-06-14T12:54:07;8.18;;;3.00;;
76856;SDS011;69705;44.686;37.628;2023-06-14T12:56:34;9.35;;;2.65;;
76856;SDS011;69705;44.686;37.628;2023-06-14T12:59:01;7.60;;;2.50;;
76856;SDS011;69705;44.686;37.628;2023-06-14T13:01:28;6.30;;;2.40;;
76856;SDS011;69705;44.686;37.628;2023-06-14T13:03:54;8.35;;;2.40;;
76856;SDS011;69705;44.686;37.628;2023-06-14T13:06:21;7.13;;;3.28;;
76856;SDS011;69705;44.686;37.628;2023-06-14T13:08:51;10.65;;;3.20;;
76856;SDS011;69705;44.686;37.628;2023-06-14T13:11:21;7.07;;;2.70;;
76856;SDS011;69705;44.686;37.628;2023-06-14T13:13:47;6.03;;;2.10;;
76856;SDS011;69705;44.686;37.628;2023-06-14T13:16:14;7.72;;;2.20;;
76856;SDS011;69705;44.686;37.628;2023-06-14T13:18:41;9.07;;;2.20;;
76856;SDS011;69705;44.686;37.628;2023-06-14T13:21:08;7.38;;;2.28;;
76856;SDS011;69705;44.686;37.628;2023-06-14T13:23:35;6.40;;;2.20;;
76856;SDS011;69705;44.686;37.628;2023-06-14T13:26:02;5.47;;;2.10;;
76856;SDS011;69705;44.686;37.628;2023-06-14T13:28:28;7.43;;;2.30;;
76856;SDS011;69705;44.686;37.628;2023-06-14T13:30:57;7.38;;;2.15;;
76856;SDS011;69705;44.686;37.628;2023-06-14T13:33:24;6.57;;;2.10;;
76856;SDS011;69705;44.686;37.628;2023-06-14T13:35:51;6.67;;;2.30;;
76856;SDS011;69705;44.686;37.628;2023-06-14T13:38:19;6.32;;;1.98;;
76856;SDS011;69705;44.686;37.628;2023-06-14T13:40:46;6.18;;;2.30;;
76856;SDS011;69705;44.686;37.628;2023-06-14T13:43:13;6.15;;;2.28;;
76856;SDS011;69705;44.686;37.628;2023-06-14T13:45:39;7.07;;;2.42;;
76856;SDS011;69705;44.686;37.628;2023-06-14T13:48:06;31.67;;;3.90;;
76856;SDS011;69705;44.686;37.628;2023-06-14T13:50:33;7.03;;;2.50;;
76856;SDS011;69705;44.686;37.628;2023-06-14T13:53:06;7.55;;;2.30;;
76856;SDS011;69705;44.686;37.628;2023-06-14T13:55:33;6.63;;;2.40;;
76856;SDS011;69705;44.686;37.628;2023-06-14T13:58:00;6.70;;;2.20;;
76856;SDS011;69705;44.686;37.628;2023-06-14T14:00:27;6.13;;;2.30;;
76856;SDS011;69705;44.686;37.628;2023-06-14T14:02:54;10.82;;;2.40;;
76856;SDS011;69705;44.686;37.628;2023-06-14T14:05:23;6.68;;;2.50;;
76856;SDS011;69705;44.686;37.628;2023-06-14T14:10:40;6.63;;;2.20;;
76856;SDS011;69705;44.686;37.628;2023-06-14T14:13:07;7.20;;;2.17;;
76856;SDS011;69705;44.686;37.628;2023-06-14T14:15:34;5.78;;;2.10;;
76856;SDS011;69705;44.686;37.628;2023-06-14T14:18:01;7.18;;;2.40;;
76856;SDS011;69705;44.686;37.628;2023-06-14T14:20:30;7.30;;;2.40;;
76856;SDS011;69705;44.686;37.628;2023-06-14T14:22:57;8.02;;;2.47;;
76856;SDS011;69705;44.686;37.628;2023-06-14T14:25:24;5.87;;;2.33;;
76856;SDS011;69705;44.686;37.628;2023-06-14T14:27:51;8.57;;;2.28;;
76856;SDS011;69705;44.686;37.628;2023-06-14T14:30:37;7.38;;;2.30;;
76856;SDS011;69705;44.686;37.628;2023-06-14T14:33:05;7.03;;;2.20;;
76856;SDS011;69705;44.686;37.628;2023-06-14T14:35:38;8.82;;;2.38;;
76856;SDS011;69705;44.686;37.628;2023-06-14T14:38:05;7.73;;;2.50;;
76856;SDS011;69705;44.686;37.628;2023-06-14T14:40:32;6.45;;;2.70;;
76856;SDS011;69705;44.686;37.628;2023-06-14T14:42:59;7.68;;;2.40;;
76856;SDS011;69705;44.686;37.628;2023-06-14T14:45:31;7.50;;;2.60;;
76856;SDS011;69705;44.686;37.628;2023-06-14T14:48:03;5.93;;;2.53;;
76856;SDS011;69705;44.686;37.628;2023-06-14T14:50:35;6.03;;;2.37;;
76856;SDS011;69705;44.686;37.628;2023-06-14T14:53:02;8.20;;;2.60;;
76856;SDS011;69705;44.686;37.628;2023-06-14T14:55:29;8.23;;;2.55;;
76856;SDS011;69705;44.686;37.628;2023-06-14T14:57:56;6.63;;;2.47;;
76856;SDS011;69705;44.686;37.628;2023-06-14T15:00:28;7.82;;;2.28;;
76856;SDS011;69705;44.686;37.628;2023-06-14T15:02:56;6.30;;;2.20;;
76856;SDS011;69705;44.686;37.628;2023-06-14T15:05:23;6.13;;;2.22;;
76856;SDS011;69705;44.686;37.628;2023-06-14T15:07:49;6.43;;;2.50;;
76856;SDS011;69705;44.686;37.628;2023-06-14T15:10:16;7.45;;;2.60;;
76856;SDS011;69705;44.686;37.628;2023-06-14T15:12:43;6.90;;;2.47;;